DLH372 EDDF-EDNY
Flight info
| Callsign | DLH372 |
|---|---|
| Flight time | N/A |
| Altitude | 21000 |
| Route | ANEKI3F/25C ANEKI Y163 NEKLO Y171 INKAM T725 LAMGO T721 SUL Z714 LEBSO N851 LOKTA T122 ARFAS |
| Aircraft | B732/M-SDFGHRWY/S |
Departure
| Time | 2026-04-16 12:54 |
|---|---|
| Airport | Frankfurt Main Airport (EDDF) |
Arrival
| Time | N/A |
|---|---|
| Airport | Bodensee Airport Friedrichshafen (EDNY) |
| Time | Latitude | Longitude | Altitude | Speed | Heading |
|---|---|---|---|---|---|
| 2026-04-16 12:16 | 50.04727 | 8.58100 | 371 ft | 0 kts | 160° |
| 2026-04-16 12:40 | 50.04730 | 8.58098 | 371 ft | 2 kts | 161° |
| 2026-04-16 12:40 | 50.04744 | 8.58090 | 371 ft | 2 kts | 160° |
| 2026-04-16 12:40 | 50.04756 | 8.58084 | 371 ft | 0 kts | 160° |
| 2026-04-16 12:40 | 50.04769 | 8.58077 | 371 ft | 2 kts | 160° |
| 2026-04-16 12:41 | 50.04783 | 8.58069 | 371 ft | 2 kts | 160° |
| 2026-04-16 12:41 | 50.04796 | 8.58061 | 371 ft | 1 kts | 167° |
| 2026-04-16 12:41 | 50.04805 | 8.58065 | 371 ft | 1 kts | 227° |
| 2026-04-16 12:41 | 50.04808 | 8.58073 | 371 ft | 1 kts | 259° |
| 2026-04-16 12:42 | 50.04810 | 8.58081 | 371 ft | 0 kts | 250° |
| 2026-04-16 12:45 | 50.04808 | 8.58072 | 371 ft | 5 kts | 249° |
| 2026-04-16 12:45 | 50.04765 | 8.57972 | 371 ft | 15 kts | 220° |
| 2026-04-16 12:45 | 50.04682 | 8.57808 | 371 ft | 23 kts | 251° |
| 2026-04-16 12:46 | 50.04621 | 8.57544 | 371 ft | 27 kts | 250° |
| 2026-04-16 12:46 | 50.04556 | 8.57270 | 371 ft | 26 kts | 250° |
| 2026-04-16 12:46 | 50.04489 | 8.57000 | 371 ft | 26 kts | 244° |
| 2026-04-16 12:46 | 50.04429 | 8.56738 | 371 ft | 25 kts | 250° |
| 2026-04-16 12:47 | 50.04366 | 8.56486 | 371 ft | 25 kts | 250° |
| 2026-04-16 12:47 | 50.04308 | 8.56231 | 371 ft | 24 kts | 251° |
| 2026-04-16 12:47 | 50.04252 | 8.55988 | 371 ft | 23 kts | 249° |
| 2026-04-16 12:47 | 50.04193 | 8.55753 | 371 ft | 23 kts | 249° |
| 2026-04-16 12:48 | 50.04138 | 8.55521 | 371 ft | 22 kts | 250° |
| 2026-04-16 12:48 | 50.04086 | 8.55298 | 371 ft | 21 kts | 250° |
| 2026-04-16 12:48 | 50.04033 | 8.55080 | 371 ft | 21 kts | 249° |
| 2026-04-16 12:48 | 50.03982 | 8.54870 | 371 ft | 20 kts | 251° |
| 2026-04-16 12:49 | 50.03935 | 8.54664 | 371 ft | 19 kts | 251° |
| 2026-04-16 12:49 | 50.03883 | 8.54467 | 371 ft | 19 kts | 248° |
| 2026-04-16 12:49 | 50.03828 | 8.54302 | 371 ft | 16 kts | 237° |
| 2026-04-16 12:49 | 50.03780 | 8.54147 | 371 ft | 15 kts | 243° |
| 2026-04-16 12:50 | 50.03743 | 8.53992 | 371 ft | 15 kts | 252° |
| 2026-04-16 12:50 | 50.03709 | 8.53838 | 371 ft | 14 kts | 250° |
| 2026-04-16 12:50 | 50.03675 | 8.53694 | 371 ft | 14 kts | 250° |
| 2026-04-16 12:50 | 50.03638 | 8.53555 | 371 ft | 13 kts | 248° |
| 2026-04-16 12:51 | 50.03605 | 8.53418 | 371 ft | 13 kts | 250° |
| 2026-04-16 12:51 | 50.03574 | 8.53287 | 371 ft | 12 kts | 250° |
| 2026-04-16 12:51 | 50.03544 | 8.53159 | 371 ft | 12 kts | 250° |
| 2026-04-16 12:51 | 50.03515 | 8.53035 | 371 ft | 11 kts | 249° |
| 2026-04-16 12:52 | 50.03485 | 8.52918 | 371 ft | 11 kts | 249° |
| 2026-04-16 12:52 | 50.03456 | 8.52804 | 371 ft | 11 kts | 248° |
| 2026-04-16 12:52 | 50.03433 | 8.52723 | 371 ft | 7 kts | 247° |
| 2026-04-16 12:52 | 50.03413 | 8.52649 | 371 ft | 7 kts | 247° |
| 2026-04-16 12:53 | 50.03394 | 8.52596 | 371 ft | 4 kts | 212° |
| 2026-04-16 12:53 | 50.03360 | 8.52589 | 371 ft | 4 kts | 180° |
| 2026-04-16 12:53 | 50.03318 | 8.52590 | 371 ft | 11 kts | 180° |
| 2026-04-16 12:53 | 50.03049 | 8.52592 | 371 ft | 74 kts | 180° |
| 2026-04-16 12:54 | 50.02287 | 8.52599 | 371 ft | 143 kts | 180° |
| 2026-04-16 12:54 | 50.01150 | 8.52634 | 673 ft | 177 kts | 180° |
| 2026-04-16 12:54 | 49.99873 | 8.52641 | 1384 ft | 187 kts | 182° |
| 2026-04-16 12:54 | 49.98636 | 8.52650 | 2369 ft | 179 kts | 182° |
| 2026-04-16 12:55 | 49.97434 | 8.52680 | 3188 ft | 180 kts | 181° |
| 2026-04-16 12:55 | 49.96146 | 8.52771 | 3865 ft | 191 kts | 181° |
| 2026-04-16 12:55 | 49.94830 | 8.52832 | 4606 ft | 193 kts | 179° |
| 2026-04-16 12:55 | 49.93487 | 8.53048 | 5332 ft | 195 kts | 181° |
| 2026-04-16 12:56 | 49.92153 | 8.53113 | 6077 ft | 194 kts | 183° |
| 2026-04-16 12:56 | 49.90813 | 8.53272 | 6686 ft | 201 kts | 177° |
| 2026-04-16 12:56 | 49.89416 | 8.53512 | 7109 ft | 217 kts | 179° |
| 2026-04-16 12:56 | 49.88934 | 8.53576 | 7277 ft | 220 kts | 180° |
| 2026-04-16 12:57 | 49.88399 | 8.53638 | 7499 ft | 222 kts | 180° |